sensor_id;sensor_type;location;lat;lon;timestamp;P1;durP1;ratioP1;P2;durP2;ratioP2
56141;SDS011;42018;48.588;10.836;2022-10-30T00:02:41;5.95;;;3.63;;
56141;SDS011;42018;48.588;10.836;2022-10-30T00:05:27;5.43;;;3.53;;
56141;SDS011;42018;48.588;10.836;2022-10-30T00:08:13;6.47;;;3.58;;
56141;SDS011;42018;48.588;10.836;2022-10-30T00:11:04;6.72;;;4.15;;
56141;SDS011;42018;48.588;10.836;2022-10-30T00:13:51;5.88;;;3.30;;
56141;SDS011;42018;48.588;10.836;2022-10-30T00:16:36;5.93;;;3.45;;
56141;SDS011;42018;48.588;10.836;2022-10-30T00:19:22;5.28;;;3.33;;
56141;SDS011;42018;48.588;10.836;2022-10-30T00:22:08;5.47;;;3.58;;
56141;SDS011;42018;48.588;10.836;2022-10-30T00:24:53;6.63;;;3.42;;
56141;SDS011;42018;48.588;10.836;2022-10-30T00:27:39;5.25;;;2.95;;
56141;SDS011;42018;48.588;10.836;2022-10-30T00:30:24;4.65;;;3.00;;
56141;SDS011;42018;48.588;10.836;2022-10-30T00:33:09;5.38;;;3.10;;
56141;SDS011;42018;48.588;10.836;2022-10-30T00:35:55;5.55;;;3.00;;
56141;SDS011;42018;48.588;10.836;2022-10-30T00:38:40;5.68;;;3.30;;
56141;SDS011;42018;48.588;10.836;2022-10-30T00:41:25;6.35;;;3.33;;
56141;SDS011;42018;48.588;10.836;2022-10-30T00:50:46;5.55;;;3.13;;
56141;SDS011;42018;48.588;10.836;2022-10-30T00:53:19;5.10;;;2.88;;
56141;SDS011;42018;48.588;10.836;2022-10-30T00:56:06;4.70;;;2.60;;
56141;SDS011;42018;48.588;10.836;2022-10-30T00:59:05;4.80;;;2.88;;
56141;SDS011;42018;48.588;10.836;2022-10-30T01:01:53;6.55;;;3.35;;
56141;SDS011;42018;48.588;10.836;2022-10-30T01:04:39;5.28;;;2.80;;
56141;SDS011;42018;48.588;10.836;2022-10-30T01:07:26;6.68;;;3.00;;
56141;SDS011;42018;48.588;10.836;2022-10-30T01:10:12;6.18;;;3.15;;
56141;SDS011;42018;48.588;10.836;2022-10-30T01:12:58;7.40;;;3.08;;
56141;SDS011;42018;48.588;10.836;2022-10-30T01:25:40;6.80;;;2.92;;
56141;SDS011;42018;48.588;10.836;2022-10-30T01:28:58;5.38;;;3.20;;
56141;SDS011;42018;48.588;10.836;2022-10-30T01:32:03;5.50;;;3.03;;
56141;SDS011;42018;48.588;10.836;2022-10-30T01:37:51;5.53;;;3.33;;
56141;SDS011;42018;48.588;10.836;2022-10-30T01:40:42;6.07;;;3.58;;
56141;SDS011;42018;48.588;10.836;2022-10-30T01:43:30;5.80;;;3.33;;
56141;SDS011;42018;48.588;10.836;2022-10-30T01:46:23;6.22;;;3.47;;
56141;SDS011;42018;48.588;10.836;2022-10-30T01:52:04;5.80;;;3.50;;
56141;SDS011;42018;48.588;10.836;2022-10-30T01:58:07;6.50;;;3.63;;
56141;SDS011;42018;48.588;10.836;2022-10-30T02:01:03;5.65;;;3.50;;
56141;SDS011;42018;48.588;10.836;2022-10-30T02:03:49;6.13;;;3.17;;
56141;SDS011;42018;48.588;10.836;2022-10-30T02:06:35;5.47;;;3.47;;
56141;SDS011;42018;48.588;10.836;2022-10-30T02:09:21;6.18;;;3.60;;
56141;SDS011;42018;48.588;10.836;2022-10-30T02:12:07;7.15;;;3.50;;
56141;SDS011;42018;48.588;10.836;2022-10-30T02:14:55;5.88;;;3.63;;
56141;SDS011;42018;48.588;10.836;2022-10-30T02:17:43;8.15;;;4.22;;
56141;SDS011;42018;48.588;10.836;2022-10-30T02:20:28;6.28;;;3.60;;
56141;SDS011;42018;48.588;10.836;2022-10-30T02:23:14;8.85;;;3.53;;
56141;SDS011;42018;48.588;10.836;2022-10-30T02:26:02;8.80;;;3.80;;
56141;SDS011;42018;48.588;10.836;2022-10-30T02:28:48;4.25;;;2.78;;
56141;SDS011;42018;48.588;10.836;2022-10-30T02:31:33;4.63;;;2.75;;
56141;SDS011;42018;48.588;10.836;2022-10-30T02:34:19;4.38;;;2.42;;
56141;SDS011;42018;48.588;10.836;2022-10-30T02:37:04;4.78;;;2.30;;
56141;SDS011;42018;48.588;10.836;2022-10-30T02:39:50;4.47;;;2.60;;
56141;SDS011;42018;48.588;10.836;2022-10-30T02:42:35;4.35;;;2.58;;
56141;SDS011;42018;48.588;10.836;2022-10-30T02:45:21;4.80;;;2.75;;
56141;SDS011;42018;48.588;10.836;2022-10-30T02:48:06;4.88;;;2.50;;
56141;SDS011;42018;48.588;10.836;2022-10-30T02:50:52;4.40;;;2.45;;
56141;SDS011;42018;48.588;10.836;2022-10-30T02:53:37;5.00;;;2.40;;
56141;SDS011;42018;48.588;10.836;2022-10-30T02:56:22;4.82;;;2.60;;
56141;SDS011;42018;48.588;10.836;2022-10-30T02:59:08;4.53;;;2.55;;
56141;SDS011;42018;48.588;10.836;2022-10-30T03:01:53;5.15;;;2.55;;
56141;SDS011;42018;48.588;10.836;2022-10-30T03:04:39;5.75;;;2.55;;
56141;SDS011;42018;48.588;10.836;2022-10-30T03:07:24;5.20;;;2.72;;
56141;SDS011;42018;48.588;10.836;2022-10-30T03:10:09;4.68;;;2.35;;
56141;SDS011;42018;48.588;10.836;2022-10-30T03:12:55;4.70;;;2.30;;
56141;SDS011;42018;48.588;10.836;2022-10-30T03:15:40;4.13;;;2.33;;
56141;SDS011;42018;48.588;10.836;2022-10-30T03:18:25;4.80;;;2.65;;
56141;SDS011;42018;48.588;10.836;2022-10-30T03:21:12;5.72;;;3.03;;
56141;SDS011;42018;48.588;10.836;2022-10-30T03:23:59;6.22;;;3.30;;
56141;SDS011;42018;48.588;10.836;2022-10-30T03:26:45;5.47;;;3.08;;
56141;SDS011;42018;48.588;10.836;2022-10-30T03:29:31;5.00;;;2.90;;
56141;SDS011;42018;48.588;10.836;2022-10-30T03:32:16;5.05;;;2.70;;
56141;SDS011;42018;48.588;10.836;2022-10-30T03:35:02;7.03;;;3.08;;
56141;SDS011;42018;48.588;10.836;2022-10-30T03:37:47;6.18;;;3.03;;
56141;SDS011;42018;48.588;10.836;2022-10-30T03:40:32;4.25;;;2.45;;
56141;SDS011;42018;48.588;10.836;2022-10-30T03:43:18;4.70;;;2.70;;
56141;SDS011;42018;48.588;10.836;2022-10-30T03:46:04;4.80;;;2.70;;
56141;SDS011;42018;48.588;10.836;2022-10-30T03:48:49;5.95;;;2.78;;
56141;SDS011;42018;48.588;10.836;2022-10-30T03:51:35;5.18;;;2.85;;
56141;SDS011;42018;48.588;10.836;2022-10-30T03:54:20;5.63;;;2.60;;
56141;SDS011;42018;48.588;10.836;2022-10-30T03:57:06;4.32;;;2.47;;
56141;SDS011;42018;48.588;10.836;2022-10-30T03:59:51;4.50;;;2.55;;
56141;SDS011;42018;48.588;10.836;2022-10-30T04:02:37;4.25;;;2.40;;
56141;SDS011;42018;48.588;10.836;2022-10-30T04:05:22;5.97;;;2.72;;
56141;SDS011;42018;48.588;10.836;2022-10-30T04:08:10;5.53;;;2.92;;
56141;SDS011;42018;48.588;10.836;2022-10-30T04:10:56;4.40;;;2.20;;
56141;SDS011;42018;48.588;10.836;2022-10-30T04:13:42;4.15;;;2.17;;
56141;SDS011;42018;48.588;10.836;2022-10-30T04:16:27;5.53;;;2.45;;
56141;SDS011;42018;48.588;10.836;2022-10-30T04:19:13;4.82;;;2.40;;
56141;SDS011;42018;48.588;10.836;2022-10-30T04:21:58;4.78;;;2.58;;
56141;SDS011;42018;48.588;10.836;2022-10-30T04:24:43;4.80;;;2.35;;
56141;SDS011;42018;48.588;10.836;2022-10-30T04:27:29;4.10;;;2.20;;
56141;SDS011;42018;48.588;10.836;2022-10-30T04:30:14;4.25;;;2.05;;
56141;SDS011;42018;48.588;10.836;2022-10-30T04:33:00;3.50;;;1.90;;
56141;SDS011;42018;48.588;10.836;2022-10-30T04:35:47;4.25;;;2.20;;
56141;SDS011;42018;48.588;10.836;2022-10-30T04:38:32;3.95;;;2.05;;
56141;SDS011;42018;48.588;10.836;2022-10-30T04:41:17;4.35;;;2.40;;
56141;SDS011;42018;48.588;10.836;2022-10-30T04:44:03;4.55;;;2.40;;
56141;SDS011;42018;48.588;10.836;2022-10-30T04:46:48;4.07;;;2.30;;
56141;SDS011;42018;48.588;10.836;2022-10-30T04:49:34;4.50;;;2.47;;
56141;SDS011;42018;48.588;10.836;2022-10-30T04:52:19;5.57;;;2.40;;
56141;SDS011;42018;48.588;10.836;2022-10-30T04:55:05;5.78;;;2.20;;
56141;SDS011;42018;48.588;10.836;2022-10-30T04:57:54;4.88;;;2.47;;
56141;SDS011;42018;48.588;10.836;2022-10-30T05:00:41;5.10;;;2.33;;
56141;SDS011;42018;48.588;10.836;2022-10-30T05:03:26;3.55;;;2.00;;
56141;SDS011;42018;48.588;10.836;2022-10-30T05:06:20;3.42;;;1.90;;
56141;SDS011;42018;48.588;10.836;2022-10-30T05:09:07;3.58;;;1.98;;
56141;SDS011;42018;48.588;10.836;2022-10-30T05:11:52;4.45;;;1.95;;
56141;SDS011;42018;48.588;10.836;2022-10-30T05:14:38;3.85;;;2.10;;
56141;SDS011;42018;48.588;10.836;2022-10-30T05:17:23;4.30;;;2.20;;
56141;SDS011;42018;48.588;10.836;2022-10-30T05:20:08;3.95;;;2.20;;
56141;SDS011;42018;48.588;10.836;2022-10-30T05:22:55;4.10;;;2.05;;
56141;SDS011;42018;48.588;10.836;2022-10-30T05:25:41;4.30;;;2.20;;
56141;SDS011;42018;48.588;10.836;2022-10-30T05:28:26;4.20;;;2.30;;
56141;SDS011;42018;48.588;10.836;2022-10-30T05:31:12;3.72;;;2.05;;
56141;SDS011;42018;48.588;10.836;2022-10-30T05:33:57;4.68;;;2.35;;
56141;SDS011;42018;48.588;10.836;2022-10-30T05:36:43;5.03;;;2.25;;
56141;SDS011;42018;48.588;10.836;2022-10-30T05:39:28;4.25;;;2.10;;
56141;SDS011;42018;48.588;10.836;2022-10-30T05:42:13;4.90;;;2.10;;
56141;SDS011;42018;48.588;10.836;2022-10-30T05:44:59;3.47;;;1.98;;
56141;SDS011;42018;48.588;10.836;2022-10-30T05:47:52;3.28;;;1.85;;
56141;SDS011;42018;48.588;10.836;2022-10-30T05:50:42;2.97;;;1.70;;
56141;SDS011;42018;48.588;10.836;2022-10-30T05:53:28;2.95;;;1.70;;
56141;SDS011;42018;48.588;10.836;2022-10-30T05:56:14;3.88;;;1.88;;
56141;SDS011;42018;48.588;10.836;2022-10-30T05:58:59;3.13;;;1.73;;
56141;SDS011;42018;48.588;10.836;2022-10-30T06:01:45;2.90;;;1.60;;
56141;SDS011;42018;48.588;10.836;2022-10-30T06:04:30;3.30;;;1.55;;
56141;SDS011;42018;48.588;10.836;2022-10-30T06:07:15;3.05;;;1.80;;
56141;SDS011;42018;48.588;10.836;2022-10-30T06:10:01;3.40;;;1.83;;
56141;SDS011;42018;48.588;10.836;2022-10-30T06:12:56;4.45;;;1.92;;
56141;SDS011;42018;48.588;10.836;2022-10-30T06:15:43;3.65;;;2.00;;
56141;SDS011;42018;48.588;10.836;2022-10-30T06:18:29;4.25;;;2.50;;
56141;SDS011;42018;48.588;10.836;2022-10-30T06:21:14;4.50;;;2.30;;
56141;SDS011;42018;48.588;10.836;2022-10-30T06:24:00;5.38;;;2.63;;
56141;SDS011;42018;48.588;10.836;2022-10-30T06:26:45;4.60;;;2.70;;
56141;SDS011;42018;48.588;10.836;2022-10-30T06:29:30;5.38;;;3.65;;
56141;SDS011;42018;48.588;10.836;2022-10-30T06:32:15;7.47;;;5.00;;
56141;SDS011;42018;48.588;10.836;2022-10-30T06:35:01;6.80;;;5.03;;
56141;SDS011;42018;48.588;10.836;2022-10-30T06:37:46;7.47;;;5.35;;
56141;SDS011;42018;48.588;10.836;2022-10-30T06:40:32;8.25;;;5.38;;
56141;SDS011;42018;48.588;10.836;2022-10-30T06:43:18;7.57;;;4.60;;
56141;SDS011;42018;48.588;10.836;2022-10-30T06:46:04;7.07;;;4.22;;
56141;SDS011;42018;48.588;10.836;2022-10-30T06:48:50;7.43;;;4.72;;
56141;SDS011;42018;48.588;10.836;2022-10-30T06:51:35;6.30;;;4.32;;
56141;SDS011;42018;48.588;10.836;2022-10-30T06:54:21;5.57;;;3.60;;
56141;SDS011;42018;48.588;10.836;2022-10-30T06:57:06;5.38;;;3.53;;
56141;SDS011;42018;48.588;10.836;2022-10-30T06:59:51;5.65;;;3.30;;
56141;SDS011;42018;48.588;10.836;2022-10-30T07:02:37;5.15;;;3.22;;
56141;SDS011;42018;48.588;10.836;2022-10-30T07:05:22;5.28;;;3.25;;
56141;SDS011;42018;48.588;10.836;2022-10-30T07:08:07;5.03;;;2.90;;
56141;SDS011;42018;48.588;10.836;2022-10-30T07:10:54;4.63;;;2.75;;
56141;SDS011;42018;48.588;10.836;2022-10-30T07:13:40;4.57;;;2.75;;
56141;SDS011;42018;48.588;10.836;2022-10-30T07:16:26;4.00;;;2.60;;
56141;SDS011;42018;48.588;10.836;2022-10-30T07:19:11;4.10;;;2.30;;
56141;SDS011;42018;48.588;10.836;2022-10-30T07:21:57;3.80;;;2.20;;
56141;SDS011;42018;48.588;10.836;2022-10-30T07:24:45;3.88;;;2.22;;
56141;SDS011;42018;48.588;10.836;2022-10-30T07:27:30;4.00;;;2.30;;
56141;SDS011;42018;48.588;10.836;2022-10-30T07:30:16;4.20;;;2.50;;
56141;SDS011;42018;48.588;10.836;2022-10-30T07:33:04;4.00;;;2.47;;
56141;SDS011;42018;48.588;10.836;2022-10-30T07:35:51;4.18;;;2.35;;
56141;SDS011;42018;48.588;10.836;2022-10-30T07:38:36;4.60;;;2.38;;
56141;SDS011;42018;48.588;10.836;2022-10-30T07:41:22;4.45;;;2.60;;
56141;SDS011;42018;48.588;10.836;2022-10-30T07:44:07;5.22;;;2.70;;
56141;SDS011;42018;48.588;10.836;2022-10-30T07:46:53;4.10;;;2.50;;
56141;SDS011;42018;48.588;10.836;2022-10-30T07:49:38;5.30;;;3.40;;
56141;SDS011;42018;48.588;10.836;2022-10-30T07:52:23;4.70;;;3.00;;
56141;SDS011;42018;48.588;10.836;2022-10-30T07:55:09;5.32;;;3.10;;
56141;SDS011;42018;48.588;10.836;2022-10-30T07:57:54;5.00;;;3.20;;
56141;SDS011;42018;48.588;10.836;2022-10-30T08:00:40;6.38;;;3.05;;
56141;SDS011;42018;48.588;10.836;2022-10-30T08:03:25;5.70;;;3.20;;
56141;SDS011;42018;48.588;10.836;2022-10-30T08:06:10;5.25;;;3.25;;
56141;SDS011;42018;48.588;10.836;2022-10-30T08:08:56;5.65;;;3.08;;
56141;SDS011;42018;48.588;10.836;2022-10-30T08:11:41;6.65;;;3.30;;
56141;SDS011;42018;48.588;10.836;2022-10-30T08:14:27;5.90;;;3.13;;
56141;SDS011;42018;48.588;10.836;2022-10-30T08:17:12;5.85;;;3.20;;
56141;SDS011;42018;48.588;10.836;2022-10-30T08:19:57;6.03;;;3.05;;
56141;SDS011;42018;48.588;10.836;2022-10-30T08:23:01;5.30;;;3.00;;
56141;SDS011;42018;48.588;10.836;2022-10-30T08:25:46;6.15;;;3.10;;
56141;SDS011;42018;48.588;10.836;2022-10-30T08:28:32;5.03;;;3.05;;
56141;SDS011;42018;48.588;10.836;2022-10-30T08:31:17;6.88;;;3.58;;
56141;SDS011;42018;48.588;10.836;2022-10-30T08:34:03;5.95;;;3.10;;
56141;SDS011;42018;48.588;10.836;2022-10-30T08:36:49;7.53;;;3.40;;
56141;SDS011;42018;48.588;10.836;2022-10-30T08:39:35;6.05;;;3.28;;
56141;SDS011;42018;48.588;10.836;2022-10-30T08:42:21;7.63;;;3.72;;
56141;SDS011;42018;48.588;10.836;2022-10-30T08:45:06;6.45;;;3.58;;
56141;SDS011;42018;48.588;10.836;2022-10-30T08:47:55;6.88;;;3.70;;
56141;SDS011;42018;48.588;10.836;2022-10-30T08:50:42;5.03;;;2.90;;
56141;SDS011;42018;48.588;10.836;2022-10-30T08:53:28;5.75;;;3.28;;
56141;SDS011;42018;48.588;10.836;2022-10-30T08:56:14;6.15;;;3.20;;
56141;SDS011;42018;48.588;10.836;2022-10-30T08:59:00;7.93;;;3.35;;
56141;SDS011;42018;48.588;10.836;2022-10-30T09:01:45;5.38;;;3.35;;
56141;SDS011;42018;48.588;10.836;2022-10-30T09:04:31;5.70;;;3.50;;
56141;SDS011;42018;48.588;10.836;2022-10-30T09:07:16;6.72;;;3.58;;
56141;SDS011;42018;48.588;10.836;2022-10-30T09:10:02;6.70;;;3.42;;
56141;SDS011;42018;48.588;10.836;2022-10-30T09:12:52;6.80;;;3.40;;
56141;SDS011;42018;48.588;10.836;2022-10-30T09:15:39;6.63;;;3.22;;
56141;SDS011;42018;48.588;10.836;2022-10-30T09:18:25;4.63;;;2.97;;
56141;SDS011;42018;48.588;10.836;2022-10-30T09:21:10;5.82;;;3.22;;
56141;SDS011;42018;48.588;10.836;2022-10-30T09:23:56;6.38;;;3.47;;
56141;SDS011;42018;48.588;10.836;2022-10-30T09:26:41;5.45;;;3.10;;
56141;SDS011;42018;48.588;10.836;2022-10-30T09:29:26;5.97;;;2.78;;
56141;SDS011;42018;48.588;10.836;2022-10-30T09:32:15;8.02;;;3.60;;
56141;SDS011;42018;48.588;10.836;2022-10-30T09:35:00;6.03;;;3.00;;
56141;SDS011;42018;48.588;10.836;2022-10-30T09:37:46;7.97;;;3.10;;
56141;SDS011;42018;48.588;10.836;2022-10-30T09:52:57;7.07;;;3.63;;
56141;SDS011;42018;48.588;10.836;2022-10-30T10:05:50;7.10;;;3.75;;
56141;SDS011;42018;48.588;10.836;2022-10-30T10:08:49;6.43;;;3.65;;
56141;SDS011;42018;48.588;10.836;2022-10-30T10:11:39;7.15;;;3.65;;
56141;SDS011;42018;48.588;10.836;2022-10-30T10:14:31;7.07;;;3.47;;
56141;SDS011;42018;48.588;10.836;2022-10-30T10:17:32;7.50;;;3.70;;
56141;SDS011;42018;48.588;10.836;2022-10-30T10:20:27;7.25;;;3.78;;
56141;SDS011;42018;48.588;10.836;2022-10-30T10:23:26;7.32;;;3.63;;
56141;SDS011;42018;48.588;10.836;2022-10-30T10:26:22;8.27;;;3.55;;
56141;SDS011;42018;48.588;10.836;2022-10-30T10:29:28;8.52;;;3.85;;
56141;SDS011;42018;48.588;10.836;2022-10-30T10:32:56;7.38;;;3.80;;
56141;SDS011;42018;48.588;10.836;2022-10-30T10:38:55;7.07;;;3.67;;
56141;SDS011;42018;48.588;10.836;2022-10-30T10:41:53;7.63;;;3.75;;
56141;SDS011;42018;48.588;10.836;2022-10-30T10:44:51;9.68;;;3.83;;
56141;SDS011;42018;48.588;10.836;2022-10-30T10:51:07;7.32;;;3.80;;
56141;SDS011;42018;48.588;10.836;2022-10-30T10:54:01;6.18;;;3.67;;
56141;SDS011;42018;48.588;10.836;2022-10-30T10:56:50;7.53;;;3.42;;
56141;SDS011;42018;48.588;10.836;2022-10-30T10:59:41;8.10;;;3.70;;
56141;SDS011;42018;48.588;10.836;2022-10-30T11:05:47;6.47;;;3.30;;
56141;SDS011;42018;48.588;10.836;2022-10-30T11:08:36;6.57;;;3.55;;
56141;SDS011;42018;48.588;10.836;2022-10-30T11:11:21;9.00;;;3.70;;
56141;SDS011;42018;48.588;10.836;2022-10-30T11:14:15;8.25;;;3.70;;
56141;SDS011;42018;48.588;10.836;2022-10-30T11:17:14;8.88;;;5.88;;
56141;SDS011;42018;48.588;10.836;2022-10-30T11:20:13;6.28;;;3.50;;
56141;SDS011;42018;48.588;10.836;2022-10-30T11:23:02;6.70;;;3.50;;
56141;SDS011;42018;48.588;10.836;2022-10-30T11:32:02;11.77;;;4.70;;
56141;SDS011;42018;48.588;10.836;2022-10-30T11:34:59;8.68;;;3.97;;
56141;SDS011;42018;48.588;10.836;2022-10-30T11:37:48;7.35;;;4.05;;
56141;SDS011;42018;48.588;10.836;2022-10-30T11:40:35;8.68;;;3.95;;
56141;SDS011;42018;48.588;10.836;2022-10-30T11:43:21;9.15;;;3.70;;
56141;SDS011;42018;48.588;10.836;2022-10-30T11:46:08;7.38;;;3.60;;
56141;SDS011;42018;48.588;10.836;2022-10-30T11:48:56;6.22;;;3.42;;
56141;SDS011;42018;48.588;10.836;2022-10-30T11:51:42;8.15;;;3.50;;
56141;SDS011;42018;48.588;10.836;2022-10-30T11:54:33;8.30;;;3.90;;
56141;SDS011;42018;48.588;10.836;2022-10-30T11:57:33;8.68;;;3.20;;
56141;SDS011;42018;48.588;10.836;2022-10-30T12:00:26;7.93;;;3.40;;
56141;SDS011;42018;48.588;10.836;2022-10-30T12:03:33;7.05;;;3.50;;
56141;SDS011;42018;48.588;10.836;2022-10-30T12:11:56;9.10;;;3.90;;
56141;SDS011;42018;48.588;10.836;2022-10-30T12:14:41;7.75;;;3.45;;
56141;SDS011;42018;48.588;10.836;2022-10-30T12:17:27;8.35;;;3.90;;
56141;SDS011;42018;48.588;10.836;2022-10-30T12:20:12;10.15;;;3.47;;
56141;SDS011;42018;48.588;10.836;2022-10-30T12:23:07;10.02;;;3.47;;
56141;SDS011;42018;48.588;10.836;2022-10-30T12:26:08;9.50;;;3.50;;
56141;SDS011;42018;48.588;10.836;2022-10-30T12:29:04;9.00;;;3.30;;
56141;SDS011;42018;48.588;10.836;2022-10-30T12:31:57;7.35;;;3.35;;
56141;SDS011;42018;48.588;10.836;2022-10-30T12:34:50;9.77;;;3.67;;
56141;SDS011;42018;48.588;10.836;2022-10-30T12:37:42;6.32;;;2.90;;
56141;SDS011;42018;48.588;10.836;2022-10-30T12:40:35;8.13;;;3.53;;
56141;SDS011;42018;48.588;10.836;2022-10-30T12:43:26;7.35;;;3.33;;
56141;SDS011;42018;48.588;10.836;2022-10-30T12:52:35;8.32;;;3.67;;
56141;SDS011;42018;48.588;10.836;2022-10-30T12:55:38;7.85;;;3.60;;
56141;SDS011;42018;48.588;10.836;2022-10-30T13:01:43;7.70;;;3.42;;
56141;SDS011;42018;48.588;10.836;2022-10-30T13:04:35;9.82;;;3.55;;
56141;SDS011;42018;48.588;10.836;2022-10-30T13:07:30;8.30;;;3.42;;
56141;SDS011;42018;48.588;10.836;2022-10-30T13:10:31;7.55;;;3.30;;
56141;SDS011;42018;48.588;10.836;2022-10-30T13:13:26;8.80;;;3.22;;
56141;SDS011;42018;48.588;10.836;2022-10-30T13:16:19;7.53;;;2.97;;
56141;SDS011;42018;48.588;10.836;2022-10-30T13:19:10;10.48;;;3.58;;
56141;SDS011;42018;48.588;10.836;2022-10-30T13:27:44;8.00;;;2.92;;
56141;SDS011;42018;48.588;10.836;2022-10-30T13:30:57;7.43;;;3.25;;
56141;SDS011;42018;48.588;10.836;2022-10-30T13:34:09;9.40;;;3.45;;
56141;SDS011;42018;48.588;10.836;2022-10-30T13:43:24;7.05;;;3.78;;
56141;SDS011;42018;48.588;10.836;2022-10-30T13:52:56;6.82;;;3.55;;
56141;SDS011;42018;48.588;10.836;2022-10-30T13:55:45;9.77;;;3.85;;
56141;SDS011;42018;48.588;10.836;2022-10-30T14:01:32;7.30;;;3.75;;
56141;SDS011;42018;48.588;10.836;2022-10-30T14:04:27;7.38;;;3.40;;
56141;SDS011;42018;48.588;10.836;2022-10-30T14:13:28;10.23;;;4.10;;
56141;SDS011;42018;48.588;10.836;2022-10-30T14:19:25;8.38;;;4.50;;
56141;SDS011;42018;48.588;10.836;2022-10-30T14:22:21;9.63;;;4.28;;
56141;SDS011;42018;48.588;10.836;2022-10-30T14:25:14;8.50;;;4.70;;
56141;SDS011;42018;48.588;10.836;2022-10-30T14:28:00;11.18;;;4.40;;
56141;SDS011;42018;48.588;10.836;2022-10-30T14:30:45;7.95;;;3.67;;
56141;SDS011;42018;48.588;10.836;2022-10-30T14:39:24;7.43;;;3.83;;
56141;SDS011;42018;48.588;10.836;2022-10-30T14:45:16;11.80;;;4.40;;
56141;SDS011;42018;48.588;10.836;2022-10-30T14:51:11;6.82;;;3.20;;
56141;SDS011;42018;48.588;10.836;2022-10-30T14:54:18;7.28;;;3.50;;
56141;SDS011;42018;48.588;10.836;2022-10-30T14:57:18;9.32;;;3.15;;
56141;SDS011;42018;48.588;10.836;2022-10-30T15:00:40;6.68;;;3.33;;
56141;SDS011;42018;48.588;10.836;2022-10-30T15:09:39;6.38;;;2.97;;
56141;SDS011;42018;48.588;10.836;2022-10-30T15:15:18;5.97;;;3.30;;
56141;SDS011;42018;48.588;10.836;2022-10-30T15:18:07;8.30;;;3.72;;
56141;SDS011;42018;48.588;10.836;2022-10-30T15:21:03;6.28;;;3.30;;
56141;SDS011;42018;48.588;10.836;2022-10-30T15:23:50;7.55;;;3.70;;
56141;SDS011;42018;48.588;10.836;2022-10-30T15:26:39;6.65;;;3.35;;
56141;SDS011;42018;48.588;10.836;2022-10-30T15:29:29;5.82;;;3.60;;
56141;SDS011;42018;48.588;10.836;2022-10-30T15:32:19;6.90;;;4.07;;
56141;SDS011;42018;48.588;10.836;2022-10-30T15:35:39;7.50;;;4.00;;
56141;SDS011;42018;48.588;10.836;2022-10-30T15:38:18;7.32;;;4.25;;
56141;SDS011;42018;48.588;10.836;2022-10-30T15:41:04;14.65;;;4.18;;
56141;SDS011;42018;48.588;10.836;2022-10-30T15:43:50;8.57;;;4.20;;
56141;SDS011;42018;48.588;10.836;2022-10-30T15:46:35;8.10;;;4.32;;
56141;SDS011;42018;48.588;10.836;2022-10-30T15:52:18;7.28;;;4.22;;
56141;SDS011;42018;48.588;10.836;2022-10-30T15:55:07;9.00;;;4.35;;
56141;SDS011;42018;48.588;10.836;2022-10-30T15:57:58;7.63;;;3.97;;
56141;SDS011;42018;48.588;10.836;2022-10-30T16:01:00;6.63;;;3.80;;
56141;SDS011;42018;48.588;10.836;2022-10-30T16:03:50;7.47;;;3.95;;
56141;SDS011;42018;48.588;10.836;2022-10-30T16:06:37;8.30;;;4.68;;
56141;SDS011;42018;48.588;10.836;2022-10-30T16:09:23;7.53;;;4.25;;
56141;SDS011;42018;48.588;10.836;2022-10-30T16:12:09;8.57;;;4.25;;
56141;SDS011;42018;48.588;10.836;2022-10-30T16:14:55;6.35;;;3.95;;
56141;SDS011;42018;48.588;10.836;2022-10-30T16:17:44;9.75;;;4.50;;
56141;SDS011;42018;48.588;10.836;2022-10-30T16:20:29;7.75;;;4.22;;
56141;SDS011;42018;48.588;10.836;2022-10-30T16:23:15;7.30;;;4.07;;
56141;SDS011;42018;48.588;10.836;2022-10-30T16:26:02;7.82;;;4.30;;
56141;SDS011;42018;48.588;10.836;2022-10-30T16:28:47;6.97;;;4.22;;
56141;SDS011;42018;48.588;10.836;2022-10-30T16:31:33;6.30;;;3.85;;
56141;SDS011;42018;48.588;10.836;2022-10-30T16:37:23;10.18;;;5.50;;
56141;SDS011;42018;48.588;10.836;2022-10-30T16:40:12;9.32;;;4.97;;
56141;SDS011;42018;48.588;10.836;2022-10-30T16:43:00;7.68;;;5.10;;
56141;SDS011;42018;48.588;10.836;2022-10-30T16:45:47;7.65;;;5.00;;
56141;SDS011;42018;48.588;10.836;2022-10-30T16:48:33;8.13;;;5.03;;
56141;SDS011;42018;48.588;10.836;2022-10-30T16:51:20;7.40;;;5.03;;
56141;SDS011;42018;48.588;10.836;2022-10-30T16:54:05;7.00;;;4.88;;
56141;SDS011;42018;48.588;10.836;2022-10-30T16:57:02;6.65;;;4.50;;
56141;SDS011;42018;48.588;10.836;2022-10-30T16:59:53;7.20;;;4.47;;
56141;SDS011;42018;48.588;10.836;2022-10-30T17:02:40;9.80;;;7.75;;
56141;SDS011;42018;48.588;10.836;2022-10-30T17:05:31;10.50;;;7.85;;
56141;SDS011;42018;48.588;10.836;2022-10-30T17:11:04;17.13;;;14.68;;
56141;SDS011;42018;48.588;10.836;2022-10-30T17:22:15;7.03;;;3.83;;
56141;SDS011;42018;48.588;10.836;2022-10-30T17:25:49;5.53;;;3.73;;
56141;SDS011;42018;48.588;10.836;2022-10-30T17:28:25;6.07;;;3.40;;
56141;SDS011;42018;48.588;10.836;2022-10-30T17:34:14;7.03;;;4.22;;
56141;SDS011;42018;48.588;10.836;2022-10-30T17:37:03;8.18;;;5.57;;
56141;SDS011;42018;48.588;10.836;2022-10-30T17:39:48;8.18;;;5.65;;
56141;SDS011;42018;48.588;10.836;2022-10-30T17:42:34;7.22;;;5.65;;
56141;SDS011;42018;48.588;10.836;2022-10-30T17:45:19;7.75;;;6.30;;
56141;SDS011;42018;48.588;10.836;2022-10-30T17:48:09;7.75;;;5.65;;
56141;SDS011;42018;48.588;10.836;2022-10-30T17:50:59;8.32;;;5.95;;
56141;SDS011;42018;48.588;10.836;2022-10-30T17:56:59;7.85;;;5.88;;
56141;SDS011;42018;48.588;10.836;2022-10-30T18:02:31;8.40;;;5.20;;
56141;SDS011;42018;48.588;10.836;2022-10-30T18:05:17;6.57;;;4.60;;
56141;SDS011;42018;48.588;10.836;2022-10-30T18:08:07;5.40;;;3.47;;
56141;SDS011;42018;48.588;10.836;2022-10-30T18:10:53;7.75;;;4.63;;
56141;SDS011;42018;48.588;10.836;2022-10-30T18:13:39;5.50;;;3.80;;
56141;SDS011;42018;48.588;10.836;2022-10-30T18:16:25;6.53;;;3.60;;
56141;SDS011;42018;48.588;10.836;2022-10-30T18:19:11;6.45;;;3.17;;
56141;SDS011;42018;48.588;10.836;2022-10-30T18:21:57;5.22;;;3.00;;
56141;SDS011;42018;48.588;10.836;2022-10-30T18:24:42;5.15;;;2.92;;
56141;SDS011;42018;48.588;10.836;2022-10-30T18:27:27;5.00;;;2.83;;
56141;SDS011;42018;48.588;10.836;2022-10-30T18:30:13;7.55;;;3.00;;
56141;SDS011;42018;48.588;10.836;2022-10-30T18:32:59;5.88;;;2.90;;
56141;SDS011;42018;48.588;10.836;2022-10-30T18:35:45;4.90;;;2.83;;
56141;SDS011;42018;48.588;10.836;2022-10-30T18:38:33;3.97;;;2.38;;
56141;SDS011;42018;48.588;10.836;2022-10-30T18:41:27;3.60;;;2.10;;
56141;SDS011;42018;48.588;10.836;2022-10-30T18:44:17;4.97;;;2.38;;
56141;SDS011;42018;48.588;10.836;2022-10-30T18:47:04;3.83;;;2.03;;
56141;SDS011;42018;48.588;10.836;2022-10-30T18:49:53;3.65;;;2.05;;
56141;SDS011;42018;48.588;10.836;2022-10-30T18:52:40;4.00;;;2.45;;
56141;SDS011;42018;48.588;10.836;2022-10-30T18:55:33;4.68;;;2.35;;
56141;SDS011;42018;48.588;10.836;2022-10-30T18:58:20;4.57;;;2.50;;
56141;SDS011;42018;48.588;10.836;2022-10-30T19:01:05;4.78;;;2.80;;
56141;SDS011;42018;48.588;10.836;2022-10-30T19:03:51;5.13;;;2.95;;
56141;SDS011;42018;48.588;10.836;2022-10-30T19:06:36;4.95;;;2.90;;
56141;SDS011;42018;48.588;10.836;2022-10-30T19:09:22;5.10;;;2.97;;
56141;SDS011;42018;48.588;10.836;2022-10-30T19:12:09;4.78;;;3.25;;
56141;SDS011;42018;48.588;10.836;2022-10-30T19:14:54;4.43;;;3.20;;
56141;SDS011;42018;48.588;10.836;2022-10-30T19:17:40;5.28;;;3.40;;